Time;durP1;ratioP1;P1;durP2;ratioP2;P2;SDS_P1;SDS_P2;PMS_P1;PMS_P2;Temp;Humidity;BMP_temperature;BMP_pressure;BME280_temperature;BME280_humidity;BME280_pressure;Samples;Min_cycle;Max_cycle;Signal;HPM_P1;HPM_P2
2022/05/18 04:01:11;;;;;;;8.88;7.45;;;11.60;99.90;;;;;;5629872;23;20055;-71
2022/05/18 04:03:42;;;;;;;9.85;7.95;;;11.60;99.90;;;;;;4997619;28;20034;-72
2022/05/18 04:06:09;;;;;;;8.68;7.43;;;11.60;99.90;;;;;;4997773;28;20546;-72
2022/05/18 04:08:35;;;;;;;10.73;7.63;;;11.60;99.90;;;;;;4998012;28;20485;-72
2022/05/18 04:11:00;;;;;;;10.43;8.25;;;11.60;99.90;;;;;;4997467;28;20049;-72
2022/05/18 04:13:26;;;;;;;10.13;7.53;;;11.50;99.90;;;;;;4997790;28;20102;-72
2022/05/18 04:15:52;;;;;;;10.70;7.50;;;11.60;99.90;;;;;;5041216;23;20077;-74
2022/05/18 04:18:19;;;;;;;9.70;7.80;;;11.60;99.90;;;;;;5037756;28;20084;-74
2022/05/18 04:20:44;;;;;;;9.98;8.10;;;11.60;99.90;;;;;;5038080;28;20525;-74
2022/05/18 04:23:11;;;;;;;16.30;9.18;;;11.60;99.90;;;;;;5037427;28;20038;-74
2022/05/18 04:25:39;;;;;;;11.55;9.18;;;11.60;99.90;;;;;;5037658;28;20042;-74
2022/05/18 04:28:07;;;;;;;12.35;9.00;;;11.70;99.90;;;;;;5038143;28;20457;-75
2022/05/18 04:30:33;;;;;;;16.92;9.15;;;11.70;99.90;;;;;;5037495;28;20034;-74
2022/05/18 04:32:59;;;;;;;11.90;9.40;;;11.70;99.90;;;;;;5037631;28;20064;-74
2022/05/18 04:35:26;;;;;;;12.55;9.85;;;11.80;99.90;;;;;;5019404;28;20149;-74
2022/05/18 04:37:52;;;;;;;12.75;10.27;;;11.80;99.90;;;;;;5037237;28;20496;-74
2022/05/18 04:40:18;;;;;;;18.30;10.77;;;11.90;99.90;;;;;;5019456;28;20042;-74
2022/05/18 04:42:44;;;;;;;15.70;10.93;;;11.90;99.90;;;;;;5037175;28;20029;-74
2022/05/18 04:45:12;;;;;;;14.52;10.27;;;11.90;99.90;;;;;;5018372;28;20134;-74
2022/05/18 04:47:38;;;;;;;13.15;9.82;;;12.00;99.90;;;;;;5037067;28;20478;-75
2022/05/18 04:50:05;;;;;;;13.63;9.68;;;12.10;99.90;;;;;;5018898;28;20033;-74
2022/05/18 04:52:30;;;;;;;12.32;9.63;;;12.10;99.90;;;;;;5018951;28;20077;-74
2022/05/18 04:54:56;;;;;;;17.90;10.02;;;12.20;99.90;;;;;;5018737;28;20045;-74
2022/05/18 04:57:22;;;;;;;10.27;8.68;;;12.30;99.90;;;;;;5036424;28;20042;-74
2022/05/18 04:59:48;;;;;;;11.98;8.05;;;12.40;99.90;;;;;;5036972;28;20049;-74
2022/05/18 05:02:14;;;;;;;11.63;8.82;;;12.50;99.90;;;;;;5036986;28;20062;-74
2022/05/18 05:04:40;;;;;;;13.38;9.55;;;12.60;99.90;;;;;;5036790;28;20044;-74
2022/05/18 05:07:05;;;;;;;11.07;8.38;;;12.80;99.90;;;;;;5018115;28;20053;-74
2022/05/18 05:09:31;;;;;;;12.30;8.45;;;12.90;99.90;;;;;;5036189;28;20493;-73
2022/05/18 05:11:56;;;;;;;12.63;8.60;;;13.00;99.90;;;;;;5017621;28;20034;-74
2022/05/18 05:14:23;;;;;;;10.70;7.80;;;13.20;99.90;;;;;;5036399;28;20037;-74
2022/05/18 05:16:50;;;;;;;12.82;7.88;;;13.30;99.90;;;;;;5017879;28;20049;-74
2022/05/18 05:19:16;;;;;;;11.38;7.70;;;13.40;99.90;;;;;;5035963;28;20037;-74
2022/05/18 05:21:42;;;;;;;10.13;7.40;;;13.50;99.90;;;;;;5034728;28;20033;-74
2022/05/18 05:24:13;;;;;;;10.57;7.57;;;13.60;99.90;;;;;;5033509;28;20034;-74
2022/05/18 05:26:39;;;;;;;10.23;8.10;;;13.80;99.90;;;;;;5034189;28;20073;-74
2022/05/18 05:29:05;;;;;;;13.50;8.60;;;13.80;99.90;;;;;;5015433;28;20030;-74
2022/05/18 05:31:31;;;;;;;9.75;7.55;;;13.90;99.90;;;;;;5034398;28;20025;-74
2022/05/18 05:33:58;;;;;;;12.30;7.45;;;14.00;99.90;;;;;;5033797;28;20060;-74
2022/05/18 05:36:24;;;;;;;11.43;8.55;;;14.10;99.90;;;;;;5017821;28;20514;-74
2022/05/18 05:38:49;;;;;;;11.95;8.93;;;14.20;99.90;;;;;;5036047;28;20042;-74
2022/05/18 05:41:16;;;;;;;11.55;8.57;;;14.20;99.90;;;;;;5017592;28;20487;-74
2022/05/18 05:43:42;;;;;;;15.23;8.57;;;14.30;99.90;;;;;;5017731;28;20472;-74
2022/05/18 05:46:10;;;;;;;10.55;8.35;;;14.40;99.90;;;;;;5018063;28;20043;-74
2022/05/18 05:48:36;;;;;;;12.30;8.30;;;14.50;99.90;;;;;;5008890;28;20117;-74
2022/05/18 05:51:03;;;;;;;10.77;8.45;;;14.60;99.90;;;;;;5035832;28;20034;-74
2022/05/18 05:53:29;;;;;;;12.32;8.35;;;14.70;99.90;;;;;;5035433;28;20041;-74
2022/05/18 05:55:55;;;;;;;10.15;7.75;;;14.80;99.90;;;;;;5035296;28;20093;-74
2022/05/18 05:58:22;;;;;;;10.80;7.45;;;14.80;99.90;;;;;;5017648;28;20030;-74
2022/05/18 06:00:47;;;;;;;9.25;7.25;;;14.90;99.90;;;;;;5035391;28;20042;-74
2022/05/18 06:03:14;;;;;;;10.50;7.55;;;15.00;99.90;;;;;;5034933;28;20407;-74
2022/05/18 06:05:40;;;;;;;9.88;7.32;;;15.20;99.90;;;;;;5034835;28;20065;-74
2022/05/18 06:08:07;;;;;;;10.20;7.38;;;15.30;99.90;;;;;;5017195;28;20084;-74
2022/05/18 06:10:34;;;;;;;10.60;7.57;;;15.40;99.90;;;;;;5035428;28;20503;-74
2022/05/18 06:13:04;;;;;;;12.40;8.05;;;15.50;99.90;;;;;;5017705;28;20034;-74
2022/05/18 06:15:29;;;;;;;9.38;7.45;;;15.60;99.90;;;;;;5034470;28;20058;-74
2022/05/18 06:17:55;;;;;;;11.23;7.38;;;15.70;99.90;;;;;;5035463;28;20108;-74
2022/05/18 06:20:20;;;;;;;10.02;7.50;;;15.80;99.90;;;;;;5035063;28;20064;-74
2022/05/18 06:22:46;;;;;;;15.15;7.38;;;15.90;99.90;;;;;;5035306;28;20030;-74
2022/05/18 06:25:13;;;;;;;8.95;7.28;;;16.00;99.90;;;;;;5016790;28;20200;-74
2022/05/18 06:27:41;;;;;;;11.88;6.70;;;16.20;99.90;;;;;;5035617;28;20036;-74
2022/05/18 06:30:11;;;;;;;8.95;6.95;;;16.30;99.90;;;;;;5034513;28;20029;-74
2022/05/18 06:32:37;;;;;;;9.52;7.30;;;16.40;99.90;;;;;;5035326;28;20026;-74
2022/05/18 06:35:03;;;;;;;12.02;6.80;;;16.50;99.90;;;;;;5016694;28;20038;-75
2022/05/18 06:37:29;;;;;;;11.45;6.75;;;16.50;99.90;;;;;;5035429;28;20037;-75
2022/05/18 06:39:55;;;;;;;10.23;6.50;;;16.60;99.90;;;;;;5035209;28;20063;-74
2022/05/18 06:42:21;;;;;;;10.38;7.13;;;16.70;99.90;;;;;;5035273;28;20030;-74
2022/05/18 06:44:47;;;;;;;11.60;6.55;;;16.90;99.90;;;;;;5034214;28;20120;-74
2022/05/18 06:47:12;;;;;;;10.45;7.22;;;17.00;99.90;;;;;;5034780;28;20030;-74
2022/05/18 06:49:39;;;;;;;9.82;7.18;;;17.10;99.90;;;;;;5034907;28;20511;-74
2022/05/18 06:52:06;;;;;;;9.98;6.13;;;17.30;99.90;;;;;;5035030;28;20499;-74
2022/05/18 06:54:32;;;;;;;14.10;5.97;;;17.40;99.90;;;;;;5034442;28;20037;-74
2022/05/18 06:56:57;;;;;;;6.18;5.13;;;17.60;99.90;;;;;;5035161;28;20030;-74
2022/05/18 06:59:23;;;;;;;6.75;5.10;;;17.80;99.90;;;;;;5034316;28;20076;-75
2022/05/18 07:01:49;;;;;;;6.25;5.25;;;17.90;99.90;;;;;;5034328;28;20038;-74
2022/05/18 07:04:14;;;;;;;6.78;4.90;;;18.10;99.90;;;;;;5035054;28;20038;-74
2022/05/18 07:06:43;;;;;;;8.85;5.30;;;18.30;99.90;;;;;;5034845;28;20037;-74
2022/05/18 07:09:15;;;;;;;7.90;5.25;;;18.60;99.90;;;;;;5017482;28;20034;-74
2022/05/18 07:11:42;;;;;;;7.38;4.65;;;18.70;99.90;;;;;;5034789;28;20104;-74
2022/05/18 07:14:07;;;;;;;9.02;4.68;;;18.90;99.90;;;;;;5016575;28;20040;-74
2022/05/18 07:16:34;;;;;;;6.43;4.95;;;19.00;99.90;;;;;;5034550;28;20075;-74
2022/05/18 07:19:00;;;;;;;7.82;4.40;;;19.20;99.90;;;;;;5034636;28;20049;-74
2022/05/18 07:21:26;;;;;;;7.68;4.43;;;19.30;99.90;;;;;;5034488;28;20038;-74
2022/05/18 07:23:53;;;;;;;6.47;4.28;;;19.50;99.90;;;;;;5034411;28;20077;-74
2022/05/18 07:26:20;;;;;;;8.50;4.30;;;19.80;99.90;;;;;;5016008;28;20069;-74
2022/05/18 07:28:47;;;;;;;5.13;3.53;;;20.00;99.90;;;;;;5034815;28;20502;-74
2022/05/18 07:31:14;;;;;;;5.03;4.00;;;20.30;99.90;;;;;;5034309;28;20045;-74
2022/05/18 07:33:40;;;;;;;6.75;3.85;;;20.50;99.90;;;;;;5016241;28;20038;-74
2022/05/18 07:36:07;;;;;;;7.40;3.40;;;20.80;99.90;;;;;;5019223;28;20522;-74
2022/05/18 07:38:34;;;;;;;5.63;3.45;;;21.00;99.90;;;;;;5019636;28;20380;-74
2022/05/18 07:40:59;;;;;;;7.10;3.72;;;21.40;99.90;;;;;;5037406;28;20176;-74
2022/05/18 07:43:25;;;;;;;5.55;3.45;;;21.60;99.90;;;;;;5038185;28;20145;-74
2022/05/18 07:45:54;;;;;;;7.47;3.38;;;21.60;99.90;;;;;;5019441;28;20034;-74
2022/05/18 07:48:20;;;;;;;5.35;3.92;;;21.80;99.90;;;;;;5019912;28;20480;-74
2022/05/18 07:50:46;;;;;;;5.65;3.53;;;22.00;99.90;;;;;;5037554;28;20050;-74
2022/05/18 07:53:11;;;;;;;8.43;4.13;;;22.10;99.90;;;;;;5037462;28;20037;-74
2022/05/18 07:55:37;;;;;;;5.57;3.47;;;22.30;99.70;;;;;;5037238;28;20042;-74
2022/05/18 07:58:08;;;;;;;5.28;3.60;;;22.60;98.80;;;;;;5019694;28;20034;-74
2022/05/18 08:00:34;;;;;;;4.47;3.30;;;22.70;98.90;;;;;;5019520;28;20049;-74
2022/05/18 08:03:00;;;;;;;4.47;3.47;;;22.80;98.40;;;;;;5037522;28;20038;-74
2022/05/18 08:05:28;;;;;;;5.15;3.63;;;23.00;98.30;;;;;;5019377;28;20041;-74
2022/05/18 08:07:54;;;;;;;6.30;3.50;;;23.20;97.70;;;;;;5019668;28;20416;-74
2022/05/18 08:15:49;;;;;;;6.22;3.45;;;23.90;95.60;;;;;;5036969;28;20103;-75
2022/05/18 08:18:16;;;;;;;5.53;3.22;;;24.10;95.00;;;;;;5019034;28;20033;-75
2022/05/18 08:20:44;;;;;;;6.18;3.45;;;24.40;93.40;;;;;;5036573;28;20553;-75
2022/05/18 08:23:10;;;;;;;5.43;3.20;;;24.50;93.40;;;;;;5036735;28;20046;-75
2022/05/18 08:25:37;;;;;;;5.85;3.10;;;24.60;93.00;;;;;;5036978;28;20064;-75
2022/05/18 08:28:04;;;;;;;7.82;3.22;;;24.70;92.30;;;;;;5019169;28;20495;-75
2022/05/18 08:30:30;;;;;;;3.83;3.05;;;24.60;91.30;;;;;;5018975;28;20104;-75
2022/05/18 08:32:58;;;;;;;5.85;2.65;;;24.70;92.20;;;;;;5037025;28;20478;-75
2022/05/18 08:35:24;;;;;;;6.55;3.47;;;24.90;91.20;;;;;;5036322;28;20471;-77
2022/05/18 08:37:49;;;;;;;3.10;2.78;;;24.90;90.40;;;;;;5036984;28;20412;-75
2022/05/18 08:40:29;;;;;;;4.35;3.00;;;25.00;90.30;;;;;;5036780;28;20145;-75
2022/05/18 08:43:01;;;;;;;4.25;2.97;;;25.10;90.40;;;;;;5036765;28;20038;-76
2022/05/18 08:45:31;;;;;;;5.93;2.90;;;25.20;90.50;;;;;;5036032;28;20049;-75
2022/05/18 08:48:06;;;;;;;6.25;3.30;;;25.20;85.90;;;;;;5018592;28;20045;-75
2022/05/18 08:50:33;;;;;;;8.98;3.25;;;25.20;88.00;;;;;;5036567;28;20034;-75
2022/05/18 08:53:31;;;;;;;6.80;2.83;;;25.40;87.00;;;;;;5036211;28;20037;-75
2022/05/18 08:56:08;;;;;;;5.50;2.90;;;25.40;85.70;;;;;;5036517;28;20033;-75
2022/05/18 08:58:47;;;;;;;5.22;2.53;;;25.50;85.30;;;;;;5018749;28;20065;-75
2022/05/18 09:01:22;;;;;;;5.68;2.65;;;25.50;86.00;;;;;;5036775;28;20588;-76
2022/05/18 09:03:54;;;;;;;11.68;3.40;;;25.60;84.70;;;;;;5035354;28;20053;-76
2022/05/18 09:06:59;;;;;;;5.25;2.92;;;26.00;83.50;;;;;;5036352;28;20530;-75
2022/05/18 09:10:13;;;;;;;4.45;3.00;;;26.10;84.20;;;;;;5036286;28;20034;-75
2022/05/18 09:12:46;;;;;;;4.20;2.55;;;26.50;81.30;;;;;;5027007;28;20537;-76
2022/05/18 09:15:16;;;;;;;3.00;2.50;;;26.80;81.00;;;;;;5035689;28;20033;-76
2022/05/18 09:17:55;;;;;;;4.80;2.60;;;27.00;77.60;;;;;;5018118;28;20044;-75
2022/05/18 09:20:47;;;;;;;4.93;2.72;;;27.00;80.10;;;;;;5035787;28;20061;-76
2022/05/18 09:23:58;;;;;;;5.35;2.60;;;27.10;78.30;;;;;;5036013;28;20041;-76
2022/05/18 09:26:45;;;;;;;4.60;2.60;;;27.00;75.90;;;;;;4995024;28;20575;-76
2022/05/18 09:29:43;;;;;;;5.07;2.60;;;27.30;73.20;;;;;;5035157;28;20034;-76
2022/05/18 09:32:21;;;;;;;3.75;2.70;;;27.40;73.00;;;;;;5024270;28;20488;-76
2022/05/18 09:35:14;;;;;;;3.97;2.25;;;27.70;71.60;;;;;;5035129;28;20120;-76
2022/05/18 09:38:17;;;;;;;6.13;2.72;;;27.70;72.40;;;;;;5050902;28;20095;-76
2022/05/18 09:40:48;;;;;;;3.08;2.30;;;27.60;71.90;;;;;;5026286;28;20030;-76
2022/05/18 09:43:36;;;;;;;4.75;2.10;;;27.70;71.70;;;;;;5035868;28;20048;-76
2022/05/18 09:46:03;;;;;;;7.72;2.92;;;28.00;71.90;;;;;;5034866;28;20126;-76
2022/05/18 09:48:37;;;;;;;17.25;5.40;;;28.50;69.80;;;;;;5017729;28;20117;-77
2022/05/18 09:51:05;;;;;;;5.45;2.65;;;28.40;69.40;;;;;;5024152;28;20125;-77
2022/05/18 09:53:31;;;;;;;4.15;2.55;;;28.50;69.30;;;;;;5027624;28;20033;-77
2022/05/18 09:55:56;;;;;;;5.68;3.15;;;28.60;69.70;;;;;;5026092;28;20053;-76
2022/05/18 09:58:35;;;;;;;3.40;3.10;;;28.70;68.30;;;;;;5026110;28;20053;-76
2022/05/18 10:10:15;;;;;;;4.55;2.70;;;28.80;69.70;;;;;;5027378;28;20511;-79
2022/05/18 10:12:54;;;;;;;6.20;3.63;;;28.60;68.60;;;;;;5024892;28;20034;-77
2022/05/18 10:15:26;;;;;;;5.07;2.85;;;28.70;69.10;;;;;;5038241;23;20057;-72
2022/05/18 10:17:56;;;;;;;5.40;2.75;;;28.90;66.40;;;;;;5054995;28;20122;-74
2022/05/18 10:20:29;;;;;;;5.90;2.70;;;29.30;66.20;;;;;;5055138;28;20033;-73
2022/05/18 10:22:56;;;;;;;4.32;2.90;;;29.50;66.40;;;;;;5054812;28;20041;-74
2022/05/18 10:25:27;;;;;;;4.35;2.63;;;29.40;68.30;;;;;;5036941;28;20038;-73
2022/05/18 10:27:54;;;;;;;3.70;2.40;;;29.40;67.40;;;;;;5055187;28;20033;-73
2022/05/18 10:30:30;;;;;;;4.28;2.75;;;29.30;64.70;;;;;;5055299;28;20068;-73
2022/05/18 10:33:07;;;;;;;3.67;2.75;;;29.30;65.00;;;;;;5054936;28;20029;-74
2022/05/18 10:35:48;;;;;;;3.90;2.53;;;29.60;66.20;;;;;;5055449;28;20037;-79
2022/05/18 10:38:32;;;;;;;3.88;2.85;;;29.50;67.10;;;;;;5035704;28;20025;-73
2022/05/18 10:41:04;;;;;;;3.45;2.30;;;29.60;64.00;;;;;;5036030;28;20148;-72
2022/05/18 10:43:38;;;;;;;4.63;2.42;;;29.90;62.60;;;;;;5052167;28;20561;-72
2022/05/18 10:46:09;;;;;;;4.05;2.33;;;29.80;63.40;;;;;;5054366;28;20112;-72
2022/05/18 10:48:35;;;;;;;3.80;2.40;;;29.90;65.40;;;;;;5055343;28;20526;-73
2022/05/18 10:51:06;;;;;;;4.13;2.60;;;30.00;64.00;;;;;;5053468;28;20065;-74
2022/05/18 10:53:39;;;;;;;3.70;2.67;;;30.00;62.20;;;;;;5054578;28;20037;-72
2022/05/18 10:56:25;;;;;;;3.25;2.25;;;30.00;59.40;;;;;;5054709;28;20033;-72
2022/05/18 10:59:11;;;;;;;4.47;2.50;;;29.80;62.70;;;;;;5055050;28;20053;-73
2022/05/18 11:01:46;;;;;;;3.15;2.10;;;29.60;62.10;;;;;;5054467;28;20037;-72
2022/05/18 11:04:30;;;;;;;3.92;2.80;;;29.40;63.50;;;;;;5054558;28;20025;-72
2022/05/18 11:06:56;;;;;;;2.45;2.22;;;29.60;62.50;;;;;;5034312;28;20085;-72
2022/05/18 11:09:30;;;;;;;3.88;2.53;;;29.70;63.90;;;;;;5049968;28;20511;-72
2022/05/18 11:12:01;;;;;;;3.45;2.47;;;29.80;61.70;;;;;;5054490;28;20042;-73
2022/05/18 11:14:39;;;;;;;4.05;2.40;;;30.20;61.70;;;;;;5053950;28;20087;-73
2022/05/18 11:17:26;;;;;;;5.00;3.00;;;30.50;60.00;;;;;;5054157;28;20467;-72
2022/05/18 11:20:29;;;;;;;3.25;2.50;;;30.50;59.80;;;;;;5054158;28;20493;-72
2022/05/18 11:22:57;;;;;;;4.38;2.35;;;30.20;59.00;;;;;;5053910;28;20486;-73
2022/05/18 11:25:48;;;;;;;5.78;2.40;;;30.00;58.90;;;;;;5053956;28;20489;-73
2022/05/18 11:28:47;;;;;;;3.45;2.35;;;30.30;57.00;;;;;;5053736;28;20112;-73
2022/05/18 11:31:15;;;;;;;4.53;2.25;;;30.50;57.80;;;;;;5054400;28;20026;-73
2022/05/18 11:34:07;;;;;;;5.40;2.30;;;30.70;59.90;;;;;;5052518;28;20037;-73
2022/05/18 11:36:52;;;;;;;3.53;2.13;;;31.10;56.60;;;;;;5048840;28;20045;-73
2022/05/18 11:39:38;;;;;;;5.05;2.15;;;31.00;58.30;;;;;;5054082;28;20044;-73
2022/05/18 11:42:12;;;;;;;3.33;2.30;;;31.10;57.00;;;;;;5054296;28;20043;-73
2022/05/18 11:44:53;;;;;;;3.72;2.08;;;31.30;56.90;;;;;;5054195;28;20112;-73
2022/05/18 11:47:33;;;;;;;3.30;2.17;;;31.10;60.60;;;;;;5054107;28;20103;-73
2022/05/18 11:50:08;;;;;;;3.70;2.08;;;31.00;57.10;;;;;;5054194;28;20084;-74
2022/05/18 11:52:52;;;;;;;3.65;2.20;;;31.30;56.00;;;;;;5053710;28;20029;-73
2022/05/18 11:55:50;;;;;;;3.70;2.15;;;31.20;57.20;;;;;;5053470;28;20096;-73
2022/05/18 11:58:53;;;;;;;3.15;2.00;;;31.40;57.70;;;;;;5036678;28;20132;-72
2022/05/18 12:01:33;;;;;;;2.85;2.10;;;31.70;58.90;;;;;;5053387;28;20526;-72
2022/05/18 12:04:16;;;;;;;3.38;2.38;;;31.00;58.50;;;;;;5053736;28;20049;-73
2022/05/18 12:07:29;;;;;;;2.67;2.22;;;31.20;59.30;;;;;;5052125;28;20041;-72
2022/05/18 12:10:20;;;;;;;3.42;2.00;;;31.60;55.80;;;;;;5035150;28;20049;-72
2022/05/18 12:13:04;;;;;;;3.47;1.92;;;31.50;54.30;;;;;;5052060;28;20041;-74
2022/05/18 12:15:56;;;;;;;3.20;2.20;;;31.60;56.90;;;;;;5053749;28;20092;-72
2022/05/18 12:18:48;;;;;;;6.45;2.28;;;31.80;57.80;;;;;;5053927;28;20037;-72
2022/05/18 12:21:36;;;;;;;2.90;2.15;;;32.00;58.00;;;;;;5055302;28;20143;-72
2022/05/18 12:24:04;;;;;;;3.60;1.80;;;32.50;58.60;;;;;;5037501;28;20037;-73
2022/05/18 12:26:32;;;;;;;4.10;1.92;;;32.30;51.80;;;;;;5036781;28;20038;-73
2022/05/18 12:28:59;;;;;;;2.33;2.10;;;32.50;54.30;;;;;;5037166;28;20034;-73
2022/05/18 12:31:26;;;;;;;2.85;2.00;;;32.30;52.00;;;;;;5037812;28;20030;-72
2022/05/18 12:34:03;;;;;;;3.75;1.90;;;32.40;55.10;;;;;;5056464;28;20037;-72
2022/05/18 12:36:34;;;;;;;3.05;1.90;;;32.30;53.30;;;;;;5056818;28;20044;-74
2022/05/18 12:39:13;;;;;;;6.03;1.85;;;32.50;52.90;;;;;;5056763;28;20044;-75
2022/05/18 12:41:44;;;;;;;3.90;2.10;;;32.70;53.40;;;;;;5056719;28;20045;-74
2022/05/18 12:44:46;;;;;;;2.75;1.80;;;32.60;53.00;;;;;;5056509;28;20482;-74
2022/05/18 12:47:52;;;;;;;2.05;1.65;;;32.00;51.90;;;;;;5034032;28;20037;-74
2022/05/18 12:50:19;;;;;;;2.97;1.75;;;32.20;53.60;;;;;;5054115;28;20045;-72
2022/05/18 12:52:57;;;;;;;2.00;1.77;;;32.50;53.10;;;;;;5056727;28;20066;-73
2022/05/18 12:55:32;;;;;;;3.63;1.70;;;32.60;54.20;;;;;;5056601;28;20030;-74
2022/05/18 12:58:06;;;;;;;2.47;1.60;;;33.30;49.70;;;;;;5056369;28;20128;-73
2022/05/18 13:00:52;;;;;;;2.90;1.70;;;33.40;48.90;;;;;;5056585;28;20038;-74
2022/05/18 13:03:17;;;;;;;2.85;2.00;;;33.40;51.00;;;;;;5056292;28;20052;-72
2022/05/18 13:05:51;;;;;;;3.20;2.00;;;33.90;50.20;;;;;;5056308;28;20044;-73
2022/05/18 13:08:17;;;;;;;2.10;1.65;;;34.00;50.90;;;;;;5056484;28;20037;-74
2022/05/18 13:11:07;;;;;;;2.90;1.70;;;33.90;47.80;;;;;;5054626;28;20106;-73
2022/05/18 13:13:54;;;;;;;4.55;1.85;;;32.50;50.20;;;;;;5036470;28;20044;-75
2022/05/18 13:16:38;;;;;;;2.97;2.13;;;31.90;52.70;;;;;;5036323;28;20042;-73
2022/05/18 13:19:24;;;;;;;3.40;1.80;;;30.90;53.90;;;;;;5036378;28;20139;-73
2022/05/18 13:22:11;;;;;;;3.65;2.20;;;29.90;53.70;;;;;;5055781;28;20046;-73
2022/05/18 13:24:58;;;;;;;3.72;2.50;;;30.40;55.80;;;;;;5055680;28;20034;-72
2022/05/18 13:27:34;;;;;;;3.75;2.00;;;31.30;53.40;;;;;;5056227;28;20096;-72
2022/05/18 13:30:03;;;;;;;3.08;1.67;;;31.80;54.60;;;;;;5055028;28;20083;-72
2022/05/18 13:32:30;;;;;;;3.63;2.10;;;31.30;52.50;;;;;;5055204;28;20117;-73
2022/05/18 13:35:02;;;;;;;2.15;1.95;;;30.40;53.80;;;;;;5056262;28;20560;-73
2022/05/18 13:37:29;;;;;;;2.92;2.03;;;30.20;54.50;;;;;;5056074;28;20037;-73
2022/05/18 13:39:55;;;;;;;2.13;1.92;;;31.60;53.50;;;;;;5056004;28;20030;-73
2022/05/18 13:42:24;;;;;;;1.75;1.60;;;31.80;52.00;;;;;;5056277;28;20511;-74
2022/05/18 13:44:57;;;;;;;2.65;2.00;;;32.70;51.70;;;;;;5056033;28;20029;-73
2022/05/18 13:47:38;;;;;;;2.55;1.98;;;33.50;53.60;;;;;;5056113;28;20087;-73
2022/05/18 13:50:08;;;;;;;4.28;1.90;;;33.50;49.20;;;;;;5057130;28;20545;-73
2022/05/18 13:52:41;;;;;;;3.60;1.80;;;33.60;53.10;;;;;;5055656;28;20034;-74
2022/05/18 13:55:09;;;;;;;2.15;1.80;;;33.40;49.20;;;;;;5055735;28;20533;-74
2022/05/18 13:57:48;;;;;;;4.93;1.80;;;33.20;50.00;;;;;;5056000;28;20117;-74
2022/05/18 14:00:37;;;;;;;2.42;1.90;;;35.00;52.50;;;;;;5055886;28;20034;-73
2022/05/18 14:03:04;;;;;;;2.35;1.75;;;36.50;46.00;;;;;;5055462;28;20092;-73
2022/05/18 14:05:33;;;;;;;2.92;1.80;;;37.00;43.50;;;;;;5055584;28;20048;-72
2022/05/18 14:08:00;;;;;;;3.10;1.88;;;38.30;47.20;;;;;;5056204;28;20113;-73
2022/05/18 14:10:28;;;;;;;3.10;2.17;;;37.60;43.80;;;;;;5056882;28;20068;-73
2022/05/18 14:13:04;;;;;;;4.30;1.90;;;35.70;44.70;;;;;;5055464;28;20030;-73
2022/05/18 14:15:35;;;;;;;3.45;2.13;;;34.90;45.80;;;;;;5055568;28;20072;-73
2022/05/18 14:18:01;;;;;;;4.68;2.13;;;34.10;47.70;;;;;;5057019;28;20039;-74
2022/05/18 14:20:32;;;;;;;2.30;2.10;;;34.00;50.00;;;;;;5057496;28;20052;-73
2022/05/18 14:23:01;;;;;;;2.17;1.77;;;34.60;49.00;;;;;;5055349;28;20112;-74
2022/05/18 14:25:33;;;;;;;4.90;2.08;;;33.70;48.30;;;;;;5055151;28;20547;-74
2022/05/18 14:28:07;;;;;;;3.58;2.03;;;33.70;51.00;;;;;;5054562;28;20042;-74
2022/05/18 14:30:42;;;;;;;4.45;2.03;;;34.10;48.60;;;;;;5055577;28;20098;-73
2022/05/18 14:33:32;;;;;;;5.28;2.60;;;33.50;50.30;;;;;;5054835;28;20534;-74
2022/05/18 14:36:02;;;;;;;3.40;2.55;;;33.40;49.70;;;;;;5054878;28;20048;-75
2022/05/18 14:38:34;;;;;;;3.42;2.17;;;34.30;52.10;;;;;;5054981;28;20037;-73
2022/05/18 14:41:04;;;;;;;4.72;2.10;;;36.20;48.90;;;;;;5054639;28;20041;-73
2022/05/18 14:43:30;;;;;;;2.45;1.98;;;36.80;45.60;;;;;;5054215;28;20072;-76
2022/05/18 14:46:22;;;;;;;4.28;2.22;;;38.10;43.90;;;;;;5053120;28;20037;-73
2022/05/18 14:48:58;;;;;;;4.72;2.40;;;39.40;42.40;;;;;;5055271;28;20084;-74
2022/05/18 14:51:39;;;;;;;3.55;2.20;;;40.30;40.50;;;;;;5054805;28;20037;-74
2022/05/18 14:54:13;;;;;;;3.92;2.05;;;40.10;40.60;;;;;;5054347;28;20123;-75
2022/05/18 14:56:41;;;;;;;2.20;2.00;;;39.20;43.50;;;;;;5054639;28;20406;-75
2022/05/18 14:59:12;;;;;;;4.38;2.03;;;38.70;42.60;;;;;;5054890;28;20037;-75
2022/05/18 15:01:43;;;;;;;2.75;2.20;;;40.00;40.50;;;;;;5055161;28;20025;-75
2022/05/18 15:04:19;;;;;;;4.32;2.20;;;39.50;39.30;;;;;;5054898;28;20065;-74
2022/05/18 15:06:49;;;;;;;2.10;1.90;;;40.50;39.30;;;;;;5054250;28;20465;-74
2022/05/18 15:09:19;;;;;;;3.08;1.90;;;38.60;39.60;;;;;;5054351;28;20108;-77
2022/05/18 15:11:54;;;;;;;3.90;2.10;;;36.60;43.40;;;;;;5054460;28;20072;-75
2022/05/18 15:14:20;;;;;;;3.35;2.15;;;37.80;43.60;;;;;;5054337;28;20030;-77
2022/05/18 15:16:54;;;;;;;3.60;2.13;;;39.10;41.30;;;;;;5053815;28;20068;-76
2022/05/18 15:19:33;;;;;;;2.70;2.30;;;38.60;40.30;;;;;;5053038;28;20034;-74
2022/05/18 15:22:11;;;;;;;3.83;2.17;;;37.10;42.10;;;;;;5054453;28;20042;-75
2022/05/18 15:24:37;;;;;;;5.13;2.22;;;35.40;44.90;;;;;;5056006;28;20510;-75
2022/05/18 15:27:04;;;;;;;4.45;2.10;;;34.50;46.80;;;;;;5046028;28;20095;-74
2022/05/18 15:29:35;;;;;;;3.90;2.03;;;33.80;47.50;;;;;;5054693;28;20726;-74
2022/05/18 15:32:03;;;;;;;3.00;2.10;;;32.30;48.50;;;;;;5052579;28;20044;-73
2022/05/18 15:34:49;;;;;;;4.68;2.45;;;31.80;49.80;;;;;;5054115;28;20095;-74
2022/05/18 15:37:18;;;;;;;3.85;2.05;;;32.30;49.60;;;;;;5052641;28;20034;-74
2022/05/18 15:39:44;;;;;;;5.32;2.10;;;33.90;50.60;;;;;;5052862;28;20025;-73
2022/05/18 15:42:12;;;;;;;3.65;2.15;;;36.20;46.10;;;;;;5054287;28;20041;-76
2022/05/18 15:44:38;;;;;;;3.17;2.22;;;36.60;43.20;;;;;;5052448;28;20033;-74
2022/05/18 15:47:14;;;;;;;3.30;2.38;;;37.80;42.60;;;;;;5054042;28;20514;-74
2022/05/18 15:49:44;;;;;;;3.10;2.20;;;37.80;42.20;;;;;;5054404;28;20095;-75
2022/05/18 15:52:12;;;;;;;5.38;2.20;;;38.50;42.60;;;;;;5054778;28;20060;-74
2022/05/18 15:54:43;;;;;;;4.82;3.20;;;38.80;42.00;;;;;;5053749;28;20128;-73
2022/05/18 15:57:10;;;;;;;3.47;2.22;;;39.20;41.80;;;;;;5056839;28;20095;-74
2022/05/18 15:59:36;;;;;;;4.50;2.20;;;39.20;40.90;;;;;;5057510;28;20093;-74
2022/05/18 16:02:02;;;;;;;5.05;2.20;;;38.60;39.40;;;;;;5057671;28;20128;-73
2022/05/18 16:04:27;;;;;;;2.95;2.15;;;37.30;41.50;;;;;;5057027;28;20442;-73
2022/05/18 16:06:53;;;;;;;2.65;2.00;;;35.00;43.30;;;;;;5057160;28;20120;-76
2022/05/18 16:09:22;;;;;;;5.40;2.20;;;34.00;46.20;;;;;;5058457;28;20033;-74
2022/05/18 16:11:48;;;;;;;2.30;2.10;;;34.50;45.90;;;;;;5057276;28;20458;-75
2022/05/18 16:14:14;;;;;;;8.65;3.53;;;36.20;44.30;;;;;;5057088;28;20041;-74
2022/05/18 16:16:40;;;;;;;3.28;2.50;;;38.00;42.80;;;;;;5056665;28;20041;-75
2022/05/18 16:19:06;;;;;;;3.38;2.45;;;38.50;41.10;;;;;;5057485;28;20029;-74
2022/05/18 16:21:34;;;;;;;4.43;2.15;;;37.80;43.00;;;;;;5057496;28;20037;-74
2022/05/18 16:24:06;;;;;;;3.45;2.30;;;36.60;42.80;;;;;;5056608;28;20491;-77
2022/05/18 16:26:34;;;;;;;2.80;2.28;;;35.30;44.10;;;;;;5057122;28;20036;-75
2022/05/18 16:29:03;;;;;;;4.13;2.10;;;34.70;45.60;;;;;;5057089;28;20061;-75
2022/05/18 16:31:29;;;;;;;3.60;2.22;;;34.20;45.60;;;;;;5056903;28;20099;-76
2022/05/18 16:33:54;;;;;;;5.18;2.50;;;33.60;47.70;;;;;;5056565;28;20044;-76
2022/05/18 16:36:20;;;;;;;2.40;2.20;;;33.70;48.10;;;;;;5056532;28;20040;-76
2022/05/18 16:38:46;;;;;;;3.50;2.15;;;33.30;47.80;;;;;;5056813;28;20542;-71
2022/05/18 16:41:16;;;;;;;5.00;2.40;;;32.50;49.40;;;;;;5057149;28;20395;-71
2022/05/18 16:43:42;;;;;;;2.45;2.00;;;31.90;52.40;;;;;;5056479;28;20122;-73
2022/05/18 16:46:08;;;;;;;3.25;2.20;;;31.70;51.20;;;;;;5055513;28;20089;-74
2022/05/18 16:48:33;;;;;;;3.05;2.35;;;31.30;51.40;;;;;;5054833;28;20061;-73
2022/05/18 16:50:59;;;;;;;3.35;2.35;;;30.60;53.00;;;;;;5056748;28;20503;-73
2022/05/18 16:53:27;;;;;;;3.17;2.15;;;30.30;53.80;;;;;;5056394;28;20529;-72
2022/05/18 16:55:57;;;;;;;4.22;2.30;;;30.10;53.90;;;;;;5056347;28;20514;-73
2022/05/18 16:58:25;;;;;;;4.13;2.20;;;29.70;54.90;;;;;;5056485;28;20029;-72
2022/05/18 17:00:52;;;;;;;4.85;2.30;;;29.20;54.70;;;;;;5056353;28;20068;-73
2022/05/18 17:03:18;;;;;;;5.72;2.28;;;29.00;55.80;;;;;;5055862;28;20033;-73
2022/05/18 17:06:07;;;;;;;4.55;2.92;;;29.10;57.20;;;;;;5056255;28;20067;-73
2022/05/18 17:08:47;;;;;;;3.42;2.15;;;28.80;56.80;;;;;;5055360;28;20175;-73
2022/05/18 17:11:16;;;;;;;4.45;2.60;;;28.60;55.60;;;;;;5047826;28;20422;-72
2022/05/18 17:13:44;;;;;;;5.63;2.42;;;28.50;56.40;;;;;;5042137;28;20064;-72
2022/05/18 17:16:10;;;;;;;4.68;2.75;;;28.20;56.50;;;;;;5055001;28;20041;-73
2022/05/18 17:18:35;;;;;;;4.30;2.58;;;28.00;57.50;;;;;;5056518;28;20034;-74
2022/05/18 17:21:05;;;;;;;2.83;2.20;;;27.90;58.00;;;;;;5056016;28;20037;-74
2022/05/18 17:23:35;;;;;;;4.75;2.08;;;27.70;57.60;;;;;;5055436;28;20586;-73
2022/05/18 17:26:19;;;;;;;4.60;2.72;;;27.50;58.40;;;;;;5055921;28;20052;-74